Du har inga inställningar för hoppväder.nu

Hoppväder.nu

Senast uppdaterat 06:02

UTC-tid

2020-01-29 kl. 05:02


Sol och måne

Solen går upp 8:09 och går ner 16:26 (beräknade cirkatider)
Nästa fullmåne blir om 11 dagar (2020-02-09)

METAR

ESMX (Växjö)
(12 minuter sedan)
ESMX 290450Z 20004KT 0600 R01/P2000N R19/P2000D VV002 02/02 Q0987=



ESMT (Halmstad)
(12 minuter sedan)
ESMT 290450Z AUTO 24011KT 9999 OVC022/// 05/03 Q0988=



ESGJ (Jönköping)
(12 minuter sedan)
ESGJ 290450Z AUTO 17006KT 9999 FEW004/// SCT010/// OVC017/// 01/01 Q0985=



ESMK (Everöd)
(12 minuter sedan)
ESMK 290450Z 26006KT 9999 SCT013 04/03 Q0989=






TAF

ESMX (Växjö)
(32 minuter sedan)
ESMX 290430Z 2905/2912 16005KT 5000 SCT001 BKN005 TEMPO 2905/2908 0300 FG VV002 BECMG 2908/2910 BKN010 TEMPO 2908/2912 2000 BR BKN008=



ESMT (Halmstad)
(120 minuter sedan)
ESMT 290302Z 2904/2912 23010KT 9999 BKN015 TEMPO 2904/2912 4000 -SHRA BR BKN006 SCT015CB=



ESGJ (Jönköping)
(32 minuter sedan)
ESGJ 290430Z 2905/2912 17004KT 9999 SCT003 OVC015 TEMPO 2905/2912 2000 BR BKN005=



ESMK (Everöd)
(40 minuter sedan)
ESMK 290422Z 2905/2912 27005KT 9999 BKN030 TEMPO 2905/2909 2500 BR BKN008=





Kodnycklar till TAF och METAR






LHP

(Feringe är område K2c i Sydöstra delen)







Spotting

Hur fungerar spotthjälpen och Vindkartan?

Markvind är ca 0 m/s.
Vind på 600 m ca 0 m/s.
Vind på 1500 m ca 0 m/s.
Vind på 3000 m ca 0 m/s.
Filip Helge flyger ca 41 m/s över marken på finalen.
Du driver ca 0 m bakåt i frifall. (0 m)
Lämplig spot är 7 sekunder eller 288 m innan gropen.
(-7s eller -288 m)
För små grupper eller ensamhoppare bör man vänta 4-5 sekunder mellan grupperna.
För större grupper bör man vänta 7-9 sekunder mellan grupperna.


Vindkartan

Senast uppdaterad 06:02




All data kommer från LFV.se